Time;durP1;ratioP1;P1;durP2;ratioP2;P2;SDS_P1;SDS_P2;PMS_P1;PMS_P2;Temp;Humidity;BMP_temperature;BMP_pressure;BME280_temperature;BME280_humidity;BME280_pressure;Samples;Min_cycle;Max_cycle;Signal;HPM_P1;HPM_P2
2022/06/03 00:01:55;;;;;;;0.38;0.38;;;24.80;53.70;;;;;;5085237;28;20096;-70
2022/06/03 00:04:50;;;;;;;0.40;0.40;;;24.80;53.70;;;;;;5084549;28;20091;-69
2022/06/03 00:07:43;;;;;;;0.50;0.50;;;24.80;53.70;;;;;;5084824;28;20052;-69
2022/06/03 00:10:50;;;;;;;0.45;0.45;;;24.80;53.70;;;;;;5085141;28;20121;-69
2022/06/03 00:13:49;;;;;;;0.85;0.77;;;24.80;53.70;;;;;;5085477;28;20113;-69
2022/06/03 00:16:47;;;;;;;0.68;0.68;;;24.80;53.70;;;;;;5083481;28;20056;-69
2022/06/03 00:19:50;;;;;;;0.50;0.50;;;24.80;53.80;;;;;;5085250;28;20229;-69
2022/06/03 00:22:41;;;;;;;0.50;0.47;;;24.80;53.80;;;;;;5079618;28;20073;-69
2022/06/03 00:25:48;;;;;;;0.50;0.50;;;24.80;53.80;;;;;;5083658;28;20084;-69
2022/06/03 00:28:44;;;;;;;0.60;0.60;;;24.80;53.80;;;;;;5087844;28;20488;-69
2022/06/03 00:31:46;;;;;;;0.75;0.60;;;24.80;53.80;;;;;;5087329;28;20040;-69
2022/06/03 00:34:51;;;;;;;0.70;0.70;;;24.70;53.70;;;;;;5088089;28;20055;-69
2022/06/03 00:37:50;;;;;;;0.73;0.73;;;24.70;53.70;;;;;;5088660;28;20075;-69
2022/06/03 00:40:48;;;;;;;0.45;0.45;;;24.80;53.80;;;;;;5089023;28;20105;-69
2022/06/03 00:43:50;;;;;;;0.45;0.45;;;24.70;53.80;;;;;;5073586;28;20083;-69
2022/06/03 00:46:57;;;;;;;0.60;0.60;;;24.70;53.80;;;;;;5087468;28;20048;-69
2022/06/03 00:49:58;;;;;;;0.75;0.70;;;24.70;53.80;;;;;;5089063;28;20056;-69
2022/06/03 00:53:01;;;;;;;2.00;0.50;;;24.70;53.80;;;;;;5084279;28;20044;-69
2022/06/03 00:56:00;;;;;;;0.50;0.50;;;24.70;53.80;;;;;;5088701;28;20047;-68
2022/06/03 00:58:54;;;;;;;1.10;0.65;;;24.70;53.90;;;;;;5088195;28;20281;-69
2022/06/03 01:01:31;;;;;;;0.40;0.40;;;24.70;53.80;;;;;;5089194;28;20052;-69
2022/06/03 01:04:27;;;;;;;0.80;0.70;;;24.70;53.90;;;;;;5088836;28;20075;-69
2022/06/03 01:07:30;;;;;;;0.57;0.57;;;24.70;53.90;;;;;;5088396;28;20490;-71
2022/06/03 01:10:22;;;;;;;0.57;0.55;;;24.70;53.90;;;;;;5087538;28;20055;-70
2022/06/03 01:13:17;;;;;;;0.95;0.60;;;24.70;53.90;;;;;;5086689;28;20480;-71
2022/06/03 01:16:11;;;;;;;0.70;0.70;;;24.70;53.90;;;;;;5087381;28;20605;-71
2022/06/03 01:19:15;;;;;;;1.25;0.73;;;24.70;53.90;;;;;;5073155;28;20504;-72
2022/06/03 01:22:22;;;;;;;0.60;0.43;;;24.70;53.90;;;;;;5089061;28;20079;-69
2022/06/03 01:25:29;;;;;;;1.30;0.60;;;24.70;53.90;;;;;;5103968;28;20493;-68
2022/06/03 01:28:36;;;;;;;0.77;0.70;;;24.70;53.90;;;;;;5108036;28;20109;-71
2022/06/03 01:31:42;;;;;;;0.50;0.50;;;24.70;53.90;;;;;;5108160;28;20509;-71
2022/06/03 01:34:37;;;;;;;0.63;0.63;;;24.70;53.90;;;;;;5107192;28;20255;-71
2022/06/03 01:37:33;;;;;;;0.70;0.60;;;24.70;53.90;;;;;;5107920;28;20043;-71
2022/06/03 01:40:29;;;;;;;0.57;0.57;;;24.70;53.90;;;;;;5106717;28;20048;-70
2022/06/03 01:43:25;;;;;;;0.80;0.80;;;24.70;54.00;;;;;;5108330;28;20339;-70
2022/06/03 01:46:24;;;;;;;0.70;0.68;;;24.60;53.90;;;;;;5106218;28;20100;-70
2022/06/03 01:49:30;;;;;;;0.40;0.40;;;24.70;54.00;;;;;;5108333;28;20054;-70
2022/06/03 01:52:37;;;;;;;0.60;0.60;;;24.70;53.90;;;;;;5107112;28;20044;-70
2022/06/03 01:55:44;;;;;;;0.50;0.50;;;24.70;54.00;;;;;;5105650;28;20124;-70
2022/06/03 01:58:44;;;;;;;0.55;0.50;;;24.60;53.90;;;;;;5106506;28;20513;-70
2022/06/03 02:01:21;;;;;;;;;;;24.60;53.90;;;;;;5108421;28;20220;-71
2022/06/03 02:04:18;;;;;;;0.60;0.60;;;24.70;54.00;;;;;;5107775;28;19920;-70
2022/06/03 02:07:24;;;;;;;1.17;0.77;;;24.60;54.00;;;;;;5107452;28;20085;-70
2022/06/03 02:10:32;;;;;;;0.88;0.88;;;24.60;54.00;;;;;;5106974;27;20126;-70
2022/06/03 02:13:37;;;;;;;0.60;0.60;;;24.60;54.00;;;;;;5107601;28;20044;-70
2022/06/03 02:16:43;;;;;;;0.60;0.60;;;24.60;54.00;;;;;;5106272;28;20122;-70
2022/06/03 02:19:34;;;;;;;0.85;0.85;;;24.60;54.00;;;;;;5106942;28;20052;-70
2022/06/03 02:22:29;;;;;;;0.63;0.40;;;24.60;54.00;;;;;;5106298;28;20051;-71
2022/06/03 02:25:29;;;;;;;0.47;0.47;;;24.60;54.00;;;;;;5107037;28;20446;-70
2022/06/03 02:28:37;;;;;;;0.60;0.60;;;24.60;54.60;;;;;;5101855;28;20121;-70
2022/06/03 02:31:36;;;;;;;1.88;0.70;;;24.60;54.00;;;;;;5107346;28;20052;-70
2022/06/03 02:34:38;;;;;;;0.40;0.40;;;24.60;54.00;;;;;;5106597;28;20044;-70
2022/06/03 02:37:37;;;;;;;0.63;0.60;;;24.60;54.00;;;;;;5106204;28;20044;-70
2022/06/03 02:40:44;;;;;;;0.50;0.50;;;24.60;54.10;;;;;;5106594;28;20097;-71
2022/06/03 02:43:51;;;;;;;0.70;0.70;;;24.60;54.00;;;;;;5107017;28;20047;-70
2022/06/03 02:46:58;;;;;;;0.75;0.75;;;24.50;54.00;;;;;;5105122;28;20090;-72
2022/06/03 02:50:04;;;;;;;1.10;0.70;;;24.60;54.10;;;;;;5106681;28;20075;-70
2022/06/03 02:52:58;;;;;;;0.63;0.63;;;24.50;54.00;;;;;;5105553;28;20766;-71
2022/06/03 02:55:48;;;;;;;0.85;0.80;;;24.50;54.10;;;;;;5105547;28;20132;-70
2022/06/03 02:58:48;;;;;;;0.60;0.60;;;24.50;54.10;;;;;;5102573;28;20048;-70
2022/06/03 03:01:54;;;;;;;0.82;0.82;;;24.50;54.10;;;;;;5105478;28;20190;-71
2022/06/03 03:04:47;;;;;;;0.70;0.70;;;24.50;54.10;;;;;;5094050;28;20503;-70
2022/06/03 03:07:54;;;;;;;1.13;0.82;;;24.50;54.10;;;;;;5106581;28;20051;-70
2022/06/03 03:10:46;;;;;;;0.73;0.73;;;24.50;54.10;;;;;;5105911;28;20048;-71
2022/06/03 03:13:32;;;;;;;0.70;0.70;;;24.50;54.10;;;;;;5106389;28;20047;-70
2022/06/03 03:16:18;;;;;;;0.50;0.50;;;24.50;54.10;;;;;;5106262;28;20105;-70
2022/06/03 03:19:25;;;;;;;0.63;0.63;;;24.50;54.00;;;;;;5106428;28;20047;-70
2022/06/03 03:22:31;;;;;;;1.05;0.98;;;24.50;54.00;;;;;;5105205;28;20388;-70
2022/06/03 03:25:38;;;;;;;0.50;0.50;;;24.50;54.00;;;;;;5105818;28;20054;-70
2022/06/03 03:28:33;;;;;;;0.65;0.65;;;24.50;54.00;;;;;;5073379;28;20119;-70
2022/06/03 03:31:35;;;;;;;1.30;0.50;;;24.50;54.00;;;;;;5091129;28;20074;-70
2022/06/03 03:34:35;;;;;;;0.50;0.50;;;24.50;54.00;;;;;;5090537;28;20144;-70
2022/06/03 03:37:37;;;;;;;0.40;0.40;;;24.50;53.90;;;;;;5101102;27;20047;-71
2022/06/03 03:40:44;;;;;;;0.40;0.40;;;24.50;53.90;;;;;;5103030;28;20331;-70
2022/06/03 03:43:44;;;;;;;0.50;0.50;;;24.60;53.90;;;;;;5090267;28;20120;-70
2022/06/03 03:46:50;;;;;;;0.52;0.47;;;24.60;53.80;;;;;;5100229;28;20066;-70
2022/06/03 03:49:57;;;;;;;1.50;0.60;;;24.60;53.80;;;;;;5103433;28;20096;-70
2022/06/03 03:53:04;;;;;;;0.57;0.50;;;24.60;53.70;;;;;;5105024;28;20485;-69
2022/06/03 03:56:18;;;;;;;0.70;0.70;;;24.60;54.20;;;;;;5104323;28;20083;-70
2022/06/03 03:59:25;;;;;;;0.70;0.70;;;24.60;53.60;;;;;;5103685;28;20128;-70
2022/06/03 04:02:28;;;;;;;0.88;0.70;;;24.70;53.60;;;;;;5098725;28;20100;-69
2022/06/03 04:05:33;;;;;;;1.08;0.73;;;24.70;53.50;;;;;;5105370;28;20527;-69
2022/06/03 04:08:40;;;;;;;0.85;0.85;;;24.70;53.40;;;;;;5105492;28;20051;-69
2022/06/03 04:11:47;;;;;;;0.50;0.50;;;24.70;53.40;;;;;;5105030;28;20108;-70
2022/06/03 04:14:54;;;;;;;0.60;0.60;;;24.70;53.30;;;;;;5105434;28;20083;-69
2022/06/03 04:17:54;;;;;;;0.80;0.80;;;24.80;53.20;;;;;;5103288;28;20039;-69
2022/06/03 04:20:54;;;;;;;0.70;0.70;;;24.80;53.20;;;;;;5104116;28;20117;-70
2022/06/03 04:23:58;;;;;;;0.50;0.50;;;24.80;53.10;;;;;;5105305;28;20075;-70
2022/06/03 04:26:47;;;;;;;1.48;0.60;;;24.80;53.00;;;;;;5105098;28;20450;-69
2022/06/03 04:29:45;;;;;;;0.63;0.63;;;24.90;53.00;;;;;;5105365;28;20476;-69
2022/06/03 04:32:52;;;;;;;1.75;0.80;;;24.90;52.90;;;;;;5105507;28;20071;-69
2022/06/03 04:35:55;;;;;;;1.27;0.90;;;24.90;52.80;;;;;;5101762;28;20108;-69
2022/06/03 04:39:02;;;;;;;0.50;0.50;;;25.00;52.70;;;;;;5097705;28;20289;-69
2022/06/03 04:42:03;;;;;;;2.13;0.90;;;25.00;52.60;;;;;;5092025;28;20085;-70
2022/06/03 04:45:07;;;;;;;0.73;0.70;;;25.10;52.60;;;;;;5104923;28;20075;-69
2022/06/03 04:48:05;;;;;;;1.02;0.93;;;25.10;52.50;;;;;;5083489;28;20607;-69
2022/06/03 04:51:12;;;;;;;3.58;0.68;;;25.10;52.40;;;;;;5076182;28;20553;-69
2022/06/03 04:54:18;;;;;;;1.23;0.70;;;25.10;52.30;;;;;;5090744;28;20051;-69
2022/06/03 04:57:25;;;;;;;0.80;0.80;;;25.20;52.30;;;;;;5104629;28;20039;-70
2022/06/03 05:00:21;;;;;;;1.10;0.80;;;25.20;52.20;;;;;;5091749;28;20076;-70
2022/06/03 05:03:28;;;;;;;0.95;0.95;;;25.20;52.10;;;;;;5088104;28;20076;-69
2022/06/03 05:06:35;;;;;;;0.80;0.80;;;25.20;52.00;;;;;;5081228;28;20052;-70
2022/06/03 05:09:40;;;;;;;1.63;1.00;;;25.20;52.10;;;;;;5095971;28;20052;-69
2022/06/03 05:12:40;;;;;;;0.90;0.90;;;25.10;52.30;;;;;;5082227;28;20044;-69
2022/06/03 05:15:44;;;;;;;0.68;0.68;;;25.00;52.70;;;;;;5093621;28;20047;-69
2022/06/03 05:18:31;;;;;;;0.80;0.80;;;24.80;53.10;;;;;;5096820;27;20438;-69
2022/06/03 05:21:33;;;;;;;0.85;0.85;;;24.50;53.60;;;;;;5085031;28;20032;-68
2022/06/03 05:24:40;;;;;;;0.85;0.85;;;24.20;53.00;;;;;;5098975;28;20131;-68
2022/06/03 05:27:47;;;;;;;0.90;0.90;;;23.80;52.10;;;;;;5077430;28;20075;-65
2022/06/03 05:30:35;;;;;;;2.05;0.80;;;23.30;51.50;;;;;;5097129;28;20048;-68
2022/06/03 05:33:32;;;;;;;1.25;1.15;;;22.90;51.10;;;;;;5086545;28;20134;-69
2022/06/03 05:36:33;;;;;;;1.27;1.00;;;22.50;50.60;;;;;;5088288;28;20459;-67
2022/06/03 05:39:40;;;;;;;1.25;1.15;;;22.10;51.00;;;;;;5094977;27;20051;-65
2022/06/03 05:42:43;;;;;;;3.10;1.10;;;21.60;51.20;;;;;;5098284;27;20044;-66
2022/06/03 05:45:50;;;;;;;2.05;1.40;;;21.20;52.00;;;;;;5087919;28;20509;-67
2022/06/03 05:48:48;;;;;;;1.52;1.42;;;20.90;52.90;;;;;;5079070;28;20342;-67
2022/06/03 05:51:42;;;;;;;1.50;1.40;;;20.60;53.40;;;;;;5076501;27;20035;-69
2022/06/03 05:54:38;;;;;;;2.97;1.70;;;20.40;54.30;;;;;;5091609;28;20083;-68
2022/06/03 05:57:25;;;;;;;5.15;2.22;;;20.20;54.20;;;;;;5088347;28;20066;-70
2022/06/03 06:00:11;;;;;;;5.00;2.53;;;20.00;54.40;;;;;;5090595;28;20063;-70
2022/06/03 06:03:15;;;;;;;2.05;1.95;;;19.80;54.60;;;;;;5091500;27;20455;-70
2022/06/03 06:06:21;;;;;;;2.03;1.92;;;19.70;55.50;;;;;;5081832;27;20081;-72
2022/06/03 06:09:23;;;;;;;3.47;2.40;;;19.60;56.00;;;;;;5083097;27;20047;-69
2022/06/03 06:12:12;;;;;;;4.28;2.28;;;19.50;56.30;;;;;;5088335;28;20093;-67
2022/06/03 06:15:19;;;;;;;5.72;3.20;;;19.50;56.60;;;;;;5090066;28;20075;-67
2022/06/03 06:18:07;;;;;;;4.10;2.33;;;19.50;56.70;;;;;;5088778;27;20044;-69
2022/06/03 06:21:09;;;;;;;3.70;2.53;;;19.40;57.00;;;;;;5093044;27;20393;-73
2022/06/03 06:24:04;;;;;;;5.07;2.80;;;19.50;57.70;;;;;;5093535;28;20048;-67
2022/06/03 06:27:03;;;;;;;7.43;3.17;;;19.50;57.40;;;;;;5089989;28;20101;-69
2022/06/03 06:30:10;;;;;;;4.55;2.88;;;19.50;57.30;;;;;;5090169;28;20105;-63
2022/06/03 06:33:17;;;;;;;4.32;2.55;;;19.50;57.10;;;;;;5091314;28;20440;-63
2022/06/03 06:36:24;;;;;;;5.30;2.58;;;19.40;56.80;;;;;;5083195;28;20047;-64
2022/06/03 06:39:22;;;;;;;2.30;2.10;;;19.40;56.80;;;;;;5086198;28;20055;-70
2022/06/03 06:42:12;;;;;;;3.08;2.15;;;19.30;57.00;;;;;;5091830;28;20058;-70
2022/06/03 06:45:04;;;;;;;8.85;3.20;;;19.20;57.50;;;;;;5088676;27;20193;-69
2022/06/03 06:47:43;;;;;;;5.55;2.58;;;19.20;57.40;;;;;;5094112;28;20048;-70
2022/06/03 06:50:24;;;;;;;4.00;2.80;;;19.20;57.00;;;;;;5088659;28;20538;-69
2022/06/03 06:53:04;;;;;;;3.75;3.08;;;19.20;57.60;;;;;;5088676;28;20457;-67
2022/06/03 06:55:51;;;;;;;5.38;3.08;;;19.20;57.80;;;;;;5087152;28;20511;-65
2022/06/03 06:58:44;;;;;;;3.55;2.97;;;19.10;58.10;;;;;;5086148;28;20055;-68
2022/06/03 07:01:17;;;;;;;6.57;2.72;;;19.10;58.00;;;;;;5091765;28;20047;-69
2022/06/03 07:04:05;;;;;;;5.72;3.20;;;19.10;57.80;;;;;;5086916;28;20052;-68
2022/06/03 07:06:44;;;;;;;5.13;2.95;;;19.10;58.10;;;;;;5084728;27;20459;-68
2022/06/03 07:09:40;;;;;;;3.10;2.80;;;19.10;58.10;;;;;;5083499;28;20043;-65
2022/06/03 07:12:24;;;;;;;5.38;3.58;;;19.10;57.80;;;;;;5072538;28;20540;-65
2022/06/03 07:15:24;;;;;;;4.82;2.80;;;19.10;58.10;;;;;;5094942;27;20656;-68
2022/06/03 07:21:14;;;;;;;2.85;2.65;;;19.00;57.70;;;;;;5091347;28;20075;-69
2022/06/03 07:23:49;;;;;;;3.05;2.65;;;19.00;57.90;;;;;;5087091;28;20079;-64
2022/06/03 07:26:38;;;;;;;3.60;2.65;;;19.00;58.30;;;;;;5090154;27;20124;-67
2022/06/03 07:29:20;;;;;;;5.30;3.25;;;19.00;58.30;;;;;;5089388;28;20039;-66
2022/06/03 07:34:40;;;;;;;2.67;2.47;;;19.00;57.90;;;;;;5088273;28;20135;-69
2022/06/03 07:37:17;;;;;;;3.25;2.95;;;18.90;57.80;;;;;;5085275;28;20496;-69
2022/06/03 07:40:15;;;;;;;5.35;2.97;;;18.90;58.00;;;;;;5106725;27;20069;-70
2022/06/03 07:43:04;;;;;;;2.80;2.60;;;18.80;58.00;;;;;;5084741;27;20043;-69
2022/06/03 07:45:58;;;;;;;8.02;3.35;;;18.80;57.70;;;;;;5084354;28;20131;-69
2022/06/03 07:48:29;;;;;;;2.90;2.70;;;18.70;58.30;;;;;;5085387;28;20083;-69
2022/06/03 07:51:36;;;;;;;3.35;3.00;;;18.70;58.90;;;;;;5083807;28;20307;-69
2022/06/03 07:54:31;;;;;;;3.28;2.95;;;18.60;58.60;;;;;;5090593;28;20381;-69
2022/06/03 07:57:07;;;;;;;3.35;2.55;;;18.60;59.10;;;;;;5086134;28;20044;-67
2022/06/03 07:59:38;;;;;;;6.60;2.53;;;18.60;59.10;;;;;;5088623;28;20056;-67
2022/06/03 08:02:16;;;;;;;4.85;3.10;;;18.50;59.10;;;;;;5092581;28;20408;-67
2022/06/03 08:04:48;;;;;;;3.75;3.45;;;18.60;59.40;;;;;;5084502;28;20059;-68
2022/06/03 08:13:04;;;;;;;4.28;2.88;;;18.60;59.50;;;;;;5088134;28;20044;-66
2022/06/03 08:15:37;;;;;;;3.78;2.72;;;18.60;59.40;;;;;;5082373;28;20407;-68
2022/06/03 08:18:07;;;;;;;4.85;3.20;;;18.60;59.40;;;;;;5082706;28;20116;-68
2022/06/03 08:20:40;;;;;;;4.10;3.38;;;18.60;59.40;;;;;;5083514;28;20046;-70
2022/06/03 08:23:09;;;;;;;2.88;2.67;;;18.60;59.30;;;;;;5089117;28;20051;-66
2022/06/03 08:25:41;;;;;;;3.42;2.83;;;18.60;59.80;;;;;;5085510;28;20052;-69
2022/06/03 08:28:13;;;;;;;3.28;2.97;;;18.60;59.60;;;;;;5087780;28;20055;-71
2022/06/03 08:30:44;;;;;;;3.20;2.90;;;18.60;60.00;;;;;;5090987;28;20108;-69
2022/06/03 08:33:15;;;;;;;3.35;3.00;;;18.60;60.10;;;;;;5081813;28;20089;-69
2022/06/03 08:35:44;;;;;;;;;;;18.70;59.80;;;;;;5083406;28;20063;-68
2022/06/03 08:38:17;;;;;;;5.65;2.95;;;18.60;59.60;;;;;;5083284;28;20395;-69
2022/06/03 08:41:02;;;;;;;4.07;3.25;;;18.70;60.50;;;;;;5084895;28;20089;-69
2022/06/03 08:44:02;;;;;;;3.28;3.08;;;18.70;59.80;;;;;;5082074;28;20047;-71
2022/06/03 08:46:53;;;;;;;3.30;3.00;;;18.70;59.20;;;;;;5080627;28;20514;-68
2022/06/03 08:49:44;;;;;;;2.78;2.58;;;18.70;59.10;;;;;;5093660;27;20055;-69
2022/06/03 08:52:15;;;;;;;3.53;2.67;;;18.70;59.20;;;;;;5091684;28;20074;-69
2022/06/03 08:54:49;;;;;;;4.53;2.80;;;18.80;59.20;;;;;;5094366;28;20505;-70
2022/06/03 08:57:29;;;;;;;5.10;2.60;;;18.80;59.20;;;;;;5089407;28;20044;-69
2022/06/03 09:00:05;;;;;;;3.20;2.85;;;18.70;59.20;;;;;;5091288;28;20051;-69
2022/06/03 09:02:40;;;;;;;2.97;2.63;;;18.70;59.40;;;;;;5096005;27;20044;-69
2022/06/03 09:05:14;;;;;;;3.33;2.70;;;18.80;59.60;;;;;;5090555;28;20047;-68
2022/06/03 09:07:48;;;;;;;3.58;2.95;;;18.80;60.00;;;;;;5088549;27;20100;-68
2022/06/03 09:10:25;;;;;;;2.78;2.50;;;18.80;60.10;;;;;;5090564;27;20101;-69
2022/06/03 09:13:06;;;;;;;2.70;2.38;;;18.80;60.20;;;;;;5088698;28;20040;-70
2022/06/03 09:15:41;;;;;;;;;;;18.80;60.80;;;;;;5100192;27;20415;-73
2022/06/03 09:18:17;;;;;;;2.72;2.20;;;18.90;60.70;;;;;;5099692;27;20023;-72
2022/06/03 09:20:57;;;;;;;2.55;1.90;;;18.90;60.50;;;;;;5094061;28;20088;-69
2022/06/03 09:23:26;;;;;;;1.92;1.83;;;19.00;60.30;;;;;;5086822;28;21034;-68
2022/06/03 09:25:57;;;;;;;2.33;2.13;;;19.00;60.10;;;;;;5090784;28;20055;-69
2022/06/03 09:28:32;;;;;;;2.05;1.95;;;19.10;60.00;;;;;;5092616;28;20052;-70
2022/06/03 09:31:07;;;;;;;2.03;1.92;;;19.10;59.80;;;;;;5086093;28;20043;-66
2022/06/03 09:33:37;;;;;;;1.85;1.75;;;19.10;60.10;;;;;;5087668;28;20148;-68
2022/06/03 09:36:13;;;;;;;1.75;1.65;;;19.10;59.90;;;;;;5091336;28;20040;-70
2022/06/03 09:38:53;;;;;;;2.00;1.80;;;19.10;59.60;;;;;;5087494;28;20109;-69
2022/06/03 09:41:24;;;;;;;1.67;1.58;;;19.10;59.90;;;;;;5084810;28;20539;-68
2022/06/03 09:43:54;;;;;;;3.55;1.92;;;19.10;60.60;;;;;;5099914;27;20047;-71
2022/06/03 09:46:25;;;;;;;3.50;2.08;;;19.10;60.70;;;;;;5104218;27;20090;-72
2022/06/03 09:48:53;;;;;;;2.40;2.20;;;19.10;60.30;;;;;;5094685;28;20139;-71
2022/06/03 09:51:55;;;;;;;2.72;2.05;;;19.10;60.60;;;;;;5089429;28;20048;-69
2022/06/03 09:54:14;;;;;;;2.03;1.90;;;19.20;60.20;;;;;;5090758;28;20387;-72
2022/06/03 09:56:46;;;;;;;3.17;2.20;;;19.10;59.90;;;;;;5095283;28;20043;-71
2022/06/03 09:59:14;;;;;;;1.85;1.75;;;19.20;60.20;;;;;;5096943;28;20059;-68
2022/06/03 10:01:41;;;;;;;2.10;1.90;;;19.20;60.10;;;;;;5084732;28;20054;-70
2022/06/03 10:04:08;;;;;;;2.35;2.03;;;19.20;60.10;;;;;;5096894;28;20043;-68
2022/06/03 10:06:50;;;;;;;1.80;1.70;;;19.20;60.40;;;;;;5091111;27;20129;-68
2022/06/03 10:18:13;;;;;;;3.58;1.77;;;19.30;59.20;;;;;;5095083;28;20067;-67
2022/06/03 10:20:43;;;;;;;1.83;1.73;;;19.30;58.80;;;;;;5096597;28;20043;-67
2022/06/03 10:23:11;;;;;;;1.80;1.67;;;19.30;58.70;;;;;;5083190;28;20695;-67
2022/06/03 10:26:01;;;;;;;1.85;1.70;;;19.30;58.70;;;;;;5089336;28;20048;-62
2022/06/03 10:28:34;;;;;;;2.33;1.55;;;19.30;58.40;;;;;;5084528;28;20051;-62
2022/06/03 10:31:11;;;;;;;2.00;1.85;;;19.20;58.50;;;;;;5087863;28;20056;-62
2022/06/03 10:33:39;;;;;;;1.70;1.60;;;19.20;58.30;;;;;;5089834;28;20714;-62
2022/06/03 10:36:06;;;;;;;4.20;1.80;;;19.20;58.80;;;;;;5088826;28;20435;-63
2022/06/03 10:38:36;;;;;;;1.75;1.65;;;19.20;58.90;;;;;;5094162;28;20140;-65
2022/06/03 10:41:09;;;;;;;2.47;1.77;;;19.20;59.20;;;;;;5092331;28;20139;-65
2022/06/03 10:43:37;;;;;;;1.92;1.65;;;19.20;59.40;;;;;;5092460;27;20043;-65
2022/06/03 10:46:15;;;;;;;1.45;1.38;;;19.20;59.80;;;;;;5097571;27;20096;-64
2022/06/03 10:48:44;;;;;;;2.15;1.80;;;19.20;60.10;;;;;;5086725;28;20048;-64
2022/06/03 11:02:46;;;;;;;1.75;1.60;;;19.30;60.20;;;;;;5076944;28;20419;-66
2022/06/03 11:05:24;;;;;;;1.92;1.83;;;19.40;60.20;;;;;;5081437;28;20089;-58
2022/06/03 11:08:08;;;;;;;1.67;1.50;;;19.40;59.90;;;;;;5087051;28;20055;-63
2022/06/03 11:10:43;;;;;;;1.80;1.70;;;19.40;59.60;;;;;;5090757;27;20048;-66
2022/06/03 11:13:24;;;;;;;1.38;1.38;;;19.40;59.60;;;;;;5087778;28;20040;-64
2022/06/03 11:15:51;;;;;;;1.50;1.40;;;19.50;59.80;;;;;;5083265;28;20047;-64
2022/06/03 11:18:29;;;;;;;2.10;1.75;;;19.50;59.90;;;;;;5086282;28;20054;-63
2022/06/03 11:21:15;;;;;;;1.90;1.80;;;19.50;59.90;;;;;;5088542;27;20051;-63
2022/06/03 11:23:42;;;;;;;1.63;1.50;;;19.60;60.00;;;;;;5083296;28;20048;-63
2022/06/03 11:26:10;;;;;;;3.10;2.00;;;19.60;59.70;;;;;;5081948;27;20044;-62
2022/06/03 11:28:46;;;;;;;1.90;1.70;;;19.60;59.50;;;;;;5088341;27;20132;-62
2022/06/03 11:31:37;;;;;;;1.55;1.45;;;19.60;59.40;;;;;;5082593;28;20068;-62
2022/06/03 11:34:16;;;;;;;1.98;1.88;;;19.60;59.10;;;;;;5091060;28;20055;-63
2022/06/03 11:36:55;;;;;;;1.80;1.70;;;19.70;59.20;;;;;;5084384;28;20250;-62
2022/06/03 11:39:49;;;;;;;3.75;1.48;;;19.70;59.20;;;;;;5080998;28;20047;-63
2022/06/03 11:42:36;;;;;;;2.75;1.75;;;19.70;59.00;;;;;;5084011;28;20133;-62
2022/06/03 11:45:15;;;;;;;1.60;1.50;;;19.70;58.90;;;;;;5080754;28;20056;-63
2022/06/03 11:48:06;;;;;;;2.05;1.20;;;19.70;59.00;;;;;;5089838;27;20094;-62
2022/06/03 11:50:35;;;;;;;1.80;1.70;;;19.70;59.00;;;;;;5087335;28;20052;-62
2022/06/03 11:53:03;;;;;;;2.63;2.22;;;19.70;59.20;;;;;;5083489;27;20514;-62
2022/06/03 11:55:33;;;;;;;3.03;1.85;;;19.70;59.50;;;;;;5088985;28;20052;-64
2022/06/03 11:58:20;;;;;;;1.63;1.50;;;19.70;59.60;;;;;;5081417;27;20047;-65
2022/06/03 12:00:57;;;;;;;1.80;1.70;;;19.80;59.70;;;;;;5089450;27;20052;-69
2022/06/03 12:03:43;;;;;;;4.97;1.80;;;19.80;60.10;;;;;;5080393;28;20247;-64
2022/06/03 12:06:17;;;;;;;1.30;1.30;;;19.80;59.80;;;;;;5085562;28;20043;-63
2022/06/03 12:09:08;;;;;;;1.77;1.67;;;19.80;59.80;;;;;;5085877;28;20067;-63
2022/06/03 12:15:36;;;;;;;1.50;1.40;;;19.90;60.00;;;;;;5091270;28;20043;-64
2022/06/03 12:18:43;;;;;;;1.10;1.10;;;20.00;60.10;;;;;;5084369;28;20097;-64
2022/06/03 12:21:15;;;;;;;1.60;1.50;;;20.00;60.00;;;;;;5086473;28;20131;-64
2022/06/03 12:23:50;;;;;;;1.40;1.30;;;20.10;60.30;;;;;;5091112;28;20047;-64
2022/06/03 12:26:32;;;;;;;1.23;1.05;;;20.00;60.20;;;;;;5098648;28;20104;-66
2022/06/03 12:29:17;;;;;;;1.25;1.15;;;20.10;60.30;;;;;;5088239;28;20518;-65
2022/06/03 12:31:46;;;;;;;1.35;1.25;;;20.10;60.30;;;;;;5095434;28;20451;-66
2022/06/03 12:34:24;;;;;;;5.68;1.40;;;20.10;60.30;;;;;;5102214;28;20087;-65
2022/06/03 12:37:00;;;;;;;2.50;1.50;;;20.10;60.30;;;;;;5096564;28;20737;-65
2022/06/03 12:39:34;;;;;;;1.30;1.30;;;20.10;60.40;;;;;;5089995;28;20059;-66
2022/06/03 12:42:11;;;;;;;1.33;1.30;;;20.10;60.20;;;;;;5091529;28;20051;-66
2022/06/03 12:45:18;;;;;;;1.52;1.48;;;20.10;60.10;;;;;;5090364;28;20044;-65
2022/06/03 12:47:48;;;;;;;2.42;1.33;;;20.10;60.10;;;;;;5094931;28;20090;-66
2022/06/03 12:50:35;;;;;;;1.75;1.40;;;20.10;60.10;;;;;;5096016;28;20063;-66
2022/06/03 12:53:38;;;;;;;1.17;1.17;;;20.10;60.00;;;;;;5096187;28;20058;-64
2022/06/03 12:56:11;;;;;;;1.83;1.70;;;20.10;60.00;;;;;;5089578;28;20055;-66
2022/06/03 12:58:47;;;;;;;1.58;1.38;;;20.10;60.00;;;;;;5094717;28;20052;-67
2022/06/03 13:01:34;;;;;;;1.25;1.25;;;20.10;60.10;;;;;;5095048;28;20130;-66
2022/06/03 13:04:37;;;;;;;1.77;1.67;;;20.10;60.00;;;;;;5097482;28;20039;-66
2022/06/03 13:07:32;;;;;;;1.58;1.48;;;20.10;60.10;;;;;;5091025;28;20577;-67
2022/06/03 13:10:22;;;;;;;1.45;1.25;;;20.10;60.10;;;;;;5091317;28;20036;-67
2022/06/03 13:12:51;;;;;;;1.20;1.20;;;20.00;60.20;;;;;;5092529;28;20044;-67
2022/06/03 13:15:43;;;;;;;1.33;1.23;;;20.00;60.30;;;;;;5097483;28;20097;-67
2022/06/03 13:18:18;;;;;;;1.25;1.25;;;20.00;60.30;;;;;;5098789;28;20481;-67
2022/06/03 13:21:10;;;;;;;2.35;1.27;;;20.00;60.30;;;;;;5097998;28;20449;-67
2022/06/03 13:24:13;;;;;;;1.75;1.65;;;19.90;60.30;;;;;;5096668;28;20540;-67
2022/06/03 13:26:46;;;;;;;2.85;1.60;;;19.90;60.00;;;;;;5093525;28;20172;-67
2022/06/03 13:29:55;;;;;;;1.08;1.08;;;19.80;60.00;;;;;;5094110;28;20040;-67
2022/06/03 13:32:57;;;;;;;1.33;1.33;;;19.90;60.00;;;;;;5102062;28;20052;-67
2022/06/03 13:35:28;;;;;;;1.58;1.48;;;19.80;59.90;;;;;;5102330;28;20496;-67
2022/06/03 13:38:22;;;;;;;1.20;1.20;;;19.80;60.00;;;;;;5097059;28;20051;-67
2022/06/03 13:43:36;;;;;;;1.27;1.23;;;19.80;60.10;;;;;;5104891;28;20039;-67
2022/06/03 13:46:10;;;;;;;1.30;1.30;;;19.80;60.10;;;;;;5088240;28;20055;-67
2022/06/03 13:48:54;;;;;;;1.67;1.42;;;19.70;60.00;;;;;;5104380;28;20036;-67
2022/06/03 13:51:33;;;;;;;1.10;1.05;;;19.80;60.10;;;;;;5097301;28;20285;-66
2022/06/03 13:54:08;;;;;;;1.52;1.42;;;19.70;60.30;;;;;;5099358;28;20672;-66
2022/06/03 13:56:36;;;;;;;1.60;1.35;;;19.70;60.40;;;;;;5086563;28;20048;-66
2022/06/03 13:59:14;;;;;;;1.10;1.10;;;19.70;60.40;;;;;;5087170;28;20056;-67
2022/06/03 14:01:49;;;;;;;1.20;1.10;;;19.70;60.60;;;;;;5087685;28;20047;-68
2022/06/03 14:04:31;;;;;;;1.15;1.15;;;19.70;60.70;;;;;;5087386;28;20506;-66
2022/06/03 14:07:06;;;;;;;1.60;1.50;;;19.80;60.80;;;;;;5082879;28;20044;-66
2022/06/03 14:09:45;;;;;;;2.33;1.30;;;19.80;60.80;;;;;;5087352;28;20305;-66
2022/06/03 14:12:36;;;;;;;1.20;1.20;;;19.80;60.50;;;;;;5088355;28;20048;-66
2022/06/03 14:15:17;;;;;;;1.08;1.08;;;19.80;60.50;;;;;;5105022;27;20092;-66
2022/06/03 14:17:53;;;;;;;1.60;1.50;;;19.80;60.60;;;;;;5094187;27;20120;-67
2022/06/03 14:20:36;;;;;;;1.25;1.25;;;19.80;60.70;;;;;;5094205;28;20493;-66
2022/06/03 14:23:25;;;;;;;1.40;1.40;;;19.80;60.70;;;;;;5101910;28;20103;-66
2022/06/03 14:26:07;;;;;;;1.27;1.27;;;19.80;60.70;;;;;;5094655;28;20048;-67
2022/06/03 14:28:56;;;;;;;1.25;1.23;;;19.80;60.90;;;;;;5099106;28;20296;-67
2022/06/03 14:31:36;;;;;;;1.35;1.35;;;19.80;60.90;;;;;;5100177;28;20083;-66
2022/06/03 14:34:13;;;;;;;1.55;1.40;;;19.80;61.10;;;;;;5087970;28;20528;-67
2022/06/03 14:36:42;;;;;;;2.25;1.20;;;19.80;60.70;;;;;;5086769;28;20527;-67
2022/06/03 14:39:14;;;;;;;1.25;1.25;;;19.80;60.70;;;;;;5092618;28;20043;-67
2022/06/03 14:41:45;;;;;;;1.40;1.30;;;19.80;60.70;;;;;;5096468;28;20347;-66
2022/06/03 14:44:17;;;;;;;1.02;1.02;;;19.80;60.70;;;;;;5089356;28;20319;-66
2022/06/03 14:47:06;;;;;;;1.33;1.33;;;19.80;60.80;;;;;;5086191;28;20113;-67
2022/06/03 14:49:56;;;;;;;1.42;1.33;;;19.80;60.90;;;;;;5090592;28;20062;-66
2022/06/03 14:52:34;;;;;;;1.00;1.00;;;19.80;61.10;;;;;;5097295;28;20048;-66
2022/06/03 14:55:08;;;;;;;1.42;1.33;;;19.80;62.50;;;;;;5102040;28;20048;-66
2022/06/03 14:57:41;;;;;;;1.52;1.33;;;19.90;63.20;;;;;;5106669;28;20501;-66
2022/06/03 15:00:34;;;;;;;1.55;1.45;;;20.00;63.60;;;;;;5107174;28;20043;-67
2022/06/03 15:03:11;;;;;;;1.25;1.20;;;20.10;63.90;;;;;;5100418;28;20062;-67
2022/06/03 15:05:53;;;;;;;1.42;1.35;;;20.30;64.20;;;;;;5091273;28;20112;-66
2022/06/03 15:08:44;;;;;;;1.23;1.23;;;20.40;64.40;;;;;;5094044;28;20101;-66
2022/06/03 15:11:21;;;;;;;1.20;1.20;;;20.60;64.50;;;;;;5083783;28;20062;-66
2022/06/03 15:13:51;;;;;;;1.52;1.50;;;20.70;64.50;;;;;;5106117;28;20058;-67
2022/06/03 15:16:19;;;;;;;0.77;0.77;;;20.80;64.50;;;;;;5106320;28;20044;-67